Latest Coastal Weather Observations for Port Kembla Harbour

IDN60701

Issued at 9:01 pm EST Sunday 23 July 2017 (issued every 10 minutes, with the page automatically refreshed every 10 minutes)

About coastal observations | Map of coastal stations | Coastal observations for NSW | Marine services | Other Formats
Station Details ID: 068253 Name: PORT KEMBLA NTC AWS Lat: -34.47 Lon: 150.91 Height: 0.0 m
Data from the previous 72 hours. | See also: Recent months for locations in New South Wales
Date/Time
EST
Temp
°C
Wind Pressure Rain since
9am
mm
Weather Cloud Vis
km
Sea
Height
m
Swell
Dir  Spd
kts
Gust
kts
hPa Trend Height
m
Period
s
Dir
23/09:00pm 18.2 SSW 4 5 - - - - - - - - - -
23/08:30pm 18.3 WSW 6 14 1013.1 - - - - - - - - -
23/08:00pm 18.6 W 7 10 1013.2 - - - - - - - - -
23/07:30pm 19.1 WSW 9 16 1013.1 - - - - - - - - -
23/07:00pm 19.4 W 10 17 1012.9 - - - - - - - - -
23/06:30pm 19.6 W 10 17 1012.6 - - - - - - - - -
23/06:00pm 19.6 W 8 11 1012.2 - - - - - - - - -
23/05:30pm 20.6 WNW 6 14 1011.8 - - - - - - - - -
23/05:00pm 20.5 NNW 6 8 1011.4 - - - - - - - - -
23/04:30pm 20.8 NNW 7 13 1011.1 - - - - - - - - -
23/04:00pm 20.9 NW 10 17 1011.3 - - - - - - - - -
23/03:30pm 20.8 WNW 11 16 1011.5 - - - - - - - - -
23/03:00pm 20.8 WNW 15 22 1011.8 - - - - - - - - -
23/02:30pm 20.7 WNW 15 28 1011.7 - - - - - - - - -
23/02:28pm 20.7 WNW 15 28 1011.8 - - - - - - - - -
23/02:00pm 20.4 NW 12 18 1011.6 - - - - - - - - -
23/01:30pm 19.7 WNW 14 25 1012.1 - - - - - - - - -
23/01:00pm 19.5 WNW 11 17 1012.5 - - - - - - - - -
23/12:30pm 19.4 WNW 14 20 1012.9 - - - - - - - - -
23/12:00pm 18.5 W 23 30 1013.4 - - - - - - - - -
23/11:43am 18.4 WNW 25 35 1013.6 - - - - - - - - -
23/11:30am 18.4 W 24 31 1014.0 - - - - - - - - -
23/11:10am 18.1 W 22 32 1014.5 - - - - - - - - -
23/11:00am 18.1 W 25 34 1014.6 - - - - - - - - -
23/10:30am 17.8 W 26 37 1014.5 - - - - - - - - -
23/10:04am 17.8 W 23 34 1014.3 - - - - - - - - -
23/10:00am 17.6 W 24 33 1014.5 - - - - - - - - -
23/09:47am 17.4 W 16 26 1014.8 - - - - - - - - -
23/09:30am 17.2 WNW 13 18 1015.1 - - - - - - - - -
23/09:02am 16.2 W 21 32 1015.0 - - - - - - - - -
23/09:00am 16.2 W 22 32 1015.1 - - - - - - - - -
23/08:30am 15.8 W 17 28 1014.8 - - - - - - - - -
23/08:24am 15.7 W 16 28 1014.9 - - - - - - - - -
23/08:00am 15.2 WSW 14 19 1014.8 - - - - - - - - -
23/07:30am 15.1 W 17 26 1014.6 - - - - - - - - -
23/07:08am 14.7 W 22 33 1014.4 - - - - - - - - -
23/07:00am 14.9 W 24 33 1014.5 - - - - - - - - -
23/06:50am 14.9 W 16 28 1014.5 - - - - - - - - -
23/06:30am 14.8 W 13 19 1014.8 - - - - - - - - -
23/06:00am 14.6 WSW 9 17 1014.7 - - - - - - - - -
23/05:36am 14.7 W 15 25 1015.0 - - - - - - - - -
23/05:30am 14.6 W 17 26 1015.0 - - - - - - - - -
23/05:00am 14.5 W 16 24 1014.9 - - - - - - - - -
23/04:30am 14.2 W 15 22 1014.6 - - - - - - - - -
23/04:00am 14.3 W 12 21 1014.8 - - - - - - - - -
23/03:30am 13.9 W 9 13 1014.9 - - - - - - - - -
23/03:00am 13.4 W 6 10 1015.0 - - - - - - - - -
23/02:30am 13.5 W 6 11 1015.2 - - - - - - - - -
23/02:00am 13.4 W 7 11 1015.5 - - - - - - - - -
23/01:30am 12.8 WSW 1 4 1015.8 - - - - - - - - -
23/01:00am 13.3 WNW 6 12 1016.0 - - - - - - - - -
23/12:30am 13.2 W 4 6 1016.2 - - - - - - - - -
23/12:00am 13.7 WNW 9 14 1016.5 - - - - - - - - -
 
Date/Time
EST
Temp
°C
Wind Pressure Rain since
9am
mm
Weather Cloud Vis
km
Sea
Height
m
Swell
Dir  Spd
kts
Gust
kts
hPa Trend Height
m
Period
s
Dir
22/11:30pm 14.0 WNW 11 15 1016.9 - - - - - - - - -
22/11:00pm 13.5 WSW 4 9 1017.2 - - - - - - - - -
22/10:30pm 14.1 W 11 17 1017.3 - - - - - - - - -
22/10:00pm 15.0 W 11 16 1017.5 - - - - - - - - -
22/09:30pm 13.4 WSW 4 8 1017.7 - - - - - - - - -
22/09:00pm 15.0 NW 10 17 1017.5 - - - - - - - - -
22/08:30pm 14.9 W 3 10 1017.4 - - - - - - - - -
22/08:00pm 14.7 S 1 3 1017.6 - - - - - - - - -
22/07:30pm 14.9 WNW 6 8 1017.8 - - - - - - - - -
22/07:00pm 16.1 WSW 5 10 1017.9 - - - - - - - - -
22/06:30pm 16.2 W 5 8 1018.1 - - - - - - - - -
22/06:00pm 16.3 W 4 7 1018.2 - - - - - - - - -
22/05:30pm 16.9 W 6 9 1017.9 - - - - - - - - -
22/05:00pm 17.7 W 8 10 1017.7 - - - - - - - - -
22/04:30pm 18.2 W 11 15 1017.5 - - - - - - - - -
22/04:00pm 18.5 W 15 20 1017.4 - - - - - - - - -
22/03:30pm 18.9 W 11 17 1017.2 - - - - - - - - -
22/03:00pm 19.1 W 9 13 1017.3 - - - - - - - - -
22/02:30pm 18.9 WNW 8 13 1017.5 - - - - - - - - -
22/02:00pm 18.7 WSW 8 14 1017.8 - - - - - - - - -
22/01:30pm 18.1 W 7 10 1018.3 - - - - - - - - -
22/01:00pm 17.8 WNW 10 15 1018.6 - - - - - - - - -
22/12:30pm 16.8 NNW 6 11 1019.1 - - - - - - - - -
22/12:00pm 15.8 NNE 7 10 1019.8 - - - - - - - - -
22/11:30am 15.1 N 6 11 1020.5 - - - - - - - - -
22/11:00am 14.6 NNE 8 11 1021.2 - - - - - - - - -
22/10:30am 13.9 NW 9 12 1021.8 - - - - - - - - -
22/10:00am 13.7 NW 11 15 1022.0 - - - - - - - - -
22/09:30am 13.4 NW 12 16 1022.4 - - - - - - - - -
22/09:00am 12.9 WNW 8 11 1022.6 - - - - - - - - -
22/08:30am 11.1 W 4 6 1022.4 - - - - - - - - -
22/08:00am 10.0 WSW 6 8 1022.6 - - - - - - - - -
22/07:30am 9.1 WSW 6 8 1022.6 - - - - - - - - -
22/07:00am 9.1 WSW 6 7 1022.4 - - - - - - - - -
22/06:30am 9.3 WSW 5 6 1022.0 - - - - - - - - -
22/06:00am 9.0 WSW 5 6 1021.8 - - - - - - - - -
22/05:30am 9.4 W 6 7 1021.7 - - - - - - - - -
22/05:00am 9.3 WSW 6 7 1021.5 - - - - - - - - -
22/04:30am 9.5 WSW 6 7 1021.5 - - - - - - - - -
22/04:00am 9.5 WSW 6 7 1021.5 - - - - - - - - -
22/03:30am 9.9 W 7 9 1021.6 - - - - - - - - -
22/03:00am 10.1 W 9 10 1021.7 - - - - - - - - -
22/02:30am 10.8 W 7 8 1021.8 - - - - - - - - -
22/02:00am 10.9 W 7 8 1021.9 - - - - - - - - -
22/01:30am 10.4 WSW 7 9 1022.0 - - - - - - - - -
22/01:00am 10.5 W 6 7 1022.1 - - - - - - - - -
22/12:30am 10.8 W 6 7 1022.2 - - - - - - - - -
22/12:00am 10.3 WSW 4 5 1022.4 - - - - - - - - -
 
Date/Time
EST
Temp
°C
Wind Pressure Rain since
9am
mm
Weather Cloud Vis
km
Sea
Height
m
Swell
Dir  Spd
kts
Gust
kts
hPa Trend Height
m
Period
s
Dir
21/11:30pm 11.2 WSW 5 5 1022.8 - - - - - - - - -
21/11:00pm 10.6 WSW 4 5 1022.7 - - - - - - - - -
21/10:30pm 10.6 WSW 4 5 1022.5 - - - - - - - - -
21/10:00pm 11.2 SW 6 7 1022.3 - - - - - - - - -
21/09:30pm 11.0 SW 5 6 1022.2 - - - - - - - - -
21/09:00pm 10.7 WSW 4 5 1022.3 - - - - - - - - -
21/08:30pm 10.9 SW 4 5 1022.2 - - - - - - - - -
21/08:00pm 12.2 W 5 6 1022.2 - - - - - - - - -
21/07:30pm 12.8 WSW 4 5 1022.0 - - - - - - - - -
21/07:00pm 12.9 W 7 9 1021.9 - - - - - - - - -
21/06:30pm 13.6 W 5 7 1021.8 - - - - - - - - -
21/06:00pm 13.8 SW 6 9 1021.8 - - - - - - - - -
21/05:30pm 14.4 SSW 6 10 1021.5 - - - - - - - - -
21/05:00pm 14.7 SSW 6 13 1021.1 - - - - - - - - -
21/04:30pm 15.2 SSW 6 11 1020.8 - - - - - - - - -
21/04:00pm 15.5 SSW 8 15 1020.7 - - - - - - - - -
21/03:30pm 15.7 SW 9 14 1020.3 - - - - - - - - -
21/03:00pm 15.5 SSW 8 17 1020.2 - - - - - - - - -
21/02:30pm 15.5 SW 8 16 1020.0 - - - - - - - - -
21/02:00pm 15.7 SSW 7 15 1019.8 - - - - - - - - -
21/01:30pm 15.6 SSW 10 18 1020.0 - - - - - - - - -
21/01:00pm 14.9 SW 11 16 1020.0 - - - - - - - - -
21/12:30pm 14.7 SW 11 18 1020.3 - - - - - - - - -
21/12:00pm 14.3 SW 9 17 1020.6 - - - - - - - - -
21/11:30am 13.9 WSW 11 16 1020.7 - - - - - - - - -
21/11:00am 13.7 WSW 13 20 1020.9 - - - - - - - - -
21/10:30am 13.5 WSW 12 18 1020.9 - - - - - - - - -
21/10:00am 13.1 WSW 11 16 1020.7 - - - - - - - - -
21/09:30am 12.4 WSW 13 18 1020.6 - - - - - - - - -
21/09:00am 12.2 WSW 12 17 1020.1 - - - - - - - - -
21/08:30am 11.7 WSW 11 15 1019.9 - - - - - - - - -
21/08:00am 11.2 WSW 10 14 1019.7 - - - - - - - - -
21/07:30am 10.8 W 8 12 1019.2 - - - - - - - - -

Other Formats:

Comma delimited format used in spreadsheet applications
http://www.bom.gov.au/fwo/IDN60701/IDN60701.95745.axf

JavaScript Object Notation format (JSON) in row-major order
http://www.bom.gov.au/fwo/IDN60701/IDN60701.95745.json